createdAt,value
2019-02-09T00:00:53.096Z,1.70
2019-02-09T00:03:25.226Z,1.80
2019-02-09T00:05:57.376Z,1.55
2019-02-09T00:08:29.606Z,1.45
2019-02-09T00:11:01.774Z,1.40
2019-02-09T00:13:33.902Z,1.90
2019-02-09T00:16:06.051Z,1.22
2019-02-09T00:18:38.228Z,1.95
2019-02-09T00:21:10.398Z,2.15
2019-02-09T00:23:42.608Z,1.37
2019-02-09T00:26:14.783Z,0.82
2019-02-09T00:28:47.022Z,1.70
2019-02-09T00:31:19.182Z,1.82
2019-02-09T00:33:51.335Z,1.65
2019-02-09T00:36:23.504Z,1.62
2019-02-09T00:38:55.657Z,1.82
2019-02-09T00:41:27.894Z,1.80
2019-02-09T00:44:00.049Z,2.00
2019-02-09T00:46:32.230Z,1.32
2019-02-09T00:49:04.387Z,1.42
2019-02-09T00:51:36.566Z,1.82
2019-02-09T00:54:08.707Z,1.85
2019-02-09T00:56:40.861Z,1.50
2019-02-09T00:59:13.012Z,1.30
2019-02-09T01:01:45.172Z,1.60
2019-02-09T01:04:17.295Z,1.02
2019-02-09T01:06:49.452Z,1.17
2019-02-09T01:09:21.586Z,1.30
2019-02-09T01:11:53.745Z,1.20
2019-02-09T01:14:25.885Z,1.40
2019-02-09T01:16:58.028Z,1.70
2019-02-09T01:19:30.195Z,1.25
2019-02-09T01:22:02.374Z,1.60
2019-02-09T01:24:34.510Z,1.70
2019-02-09T01:27:06.665Z,1.00
2019-02-09T01:29:38.802Z,1.15
2019-02-09T01:32:10.954Z,1.50
2019-02-09T01:34:43.515Z,1.20
2019-02-09T01:37:15.688Z,1.62
2019-02-09T01:39:47.888Z,1.60
2019-02-09T01:42:20.079Z,1.00
2019-02-09T01:44:52.315Z,1.40
2019-02-09T01:47:24.472Z,1.20
2019-02-09T01:49:56.637Z,0.90
2019-02-09T01:52:28.800Z,0.90
2019-02-09T01:55:00.931Z,0.75
2019-02-09T01:57:33.079Z,0.75
2019-02-09T02:00:12.739Z,1.07
2019-02-09T02:02:44.891Z,1.20
2019-02-09T02:05:18.483Z,0.75
2019-02-09T02:07:50.644Z,1.17
2019-02-09T02:10:24.422Z,1.30
2019-02-09T02:12:56.558Z,0.68
2019-02-09T02:15:28.769Z,1.02
2019-02-09T02:18:00.933Z,0.85
2019-02-09T02:20:33.123Z,0.80
2019-02-09T02:23:05.391Z,1.02
2019-02-09T02:25:37.549Z,1.10
2019-02-09T02:28:09.697Z,0.98
2019-02-09T02:30:41.866Z,1.00
2019-02-09T02:33:14.004Z,1.27
2019-02-09T02:35:46.148Z,0.68
2019-02-09T02:38:18.314Z,1.10
2019-02-09T02:40:50.452Z,1.10
2019-02-09T02:43:22.601Z,1.10
2019-02-09T02:45:54.759Z,1.00
2019-02-09T02:48:26.900Z,1.25
2019-02-09T02:50:59.051Z,0.70
2019-02-09T02:53:32.104Z,0.70
2019-02-09T02:56:04.249Z,0.65
2019-02-09T02:58:36.420Z,0.55
2019-02-09T03:01:08.555Z,0.85
2019-02-09T03:03:40.700Z,0.80
2019-02-09T03:06:12.896Z,1.02
2019-02-09T03:08:45.078Z,0.40
2019-02-09T03:11:17.227Z,0.62
2019-02-09T03:13:49.397Z,0.75
2019-02-09T03:16:21.528Z,0.95
2019-02-09T03:18:53.696Z,1.02
2019-02-09T03:21:25.851Z,1.02
2019-02-09T03:23:58.000Z,0.70
2019-02-09T03:26:30.164Z,0.45
2019-02-09T03:29:02.368Z,0.37
2019-02-09T03:31:34.520Z,0.50
2019-02-09T03:34:06.676Z,0.37
2019-02-09T03:36:38.864Z,0.95
2019-02-09T03:39:11.060Z,0.47
2019-02-09T03:41:43.203Z,0.60
2019-02-09T03:44:15.429Z,0.35
2019-02-09T03:46:47.566Z,0.57
2019-02-09T03:49:19.765Z,0.95
2019-02-09T03:51:51.898Z,1.00
2019-02-09T03:54:24.057Z,0.65
2019-02-09T03:56:56.210Z,0.68
2019-02-09T03:59:28.359Z,1.12
2019-02-09T04:02:00.505Z,0.72
2019-02-09T04:04:32.666Z,0.50
2019-02-09T04:07:04.816Z,0.62
2019-02-09T04:09:36.958Z,1.00
2019-02-09T04:12:09.101Z,1.00
2019-02-09T04:14:41.271Z,0.65
2019-02-09T04:17:13.415Z,0.55
2019-02-09T04:19:45.565Z,0.57
2019-02-09T04:22:17.696Z,0.40
2019-02-09T04:24:49.857Z,0.50
2019-02-09T04:27:22.024Z,0.40
2019-02-09T04:29:54.202Z,0.60
2019-02-09T04:32:26.334Z,0.40
2019-02-09T04:34:58.508Z,0.50
2019-02-09T04:37:30.724Z,0.62
2019-02-09T04:40:04.242Z,0.40
2019-02-09T04:42:36.391Z,0.47
2019-02-09T04:45:10.000Z,0.62
2019-02-09T04:47:42.140Z,0.40
2019-02-09T04:50:14.670Z,0.62
2019-02-09T04:52:47.180Z,0.42
2019-02-09T04:55:23.888Z,0.45
2019-02-09T04:57:56.052Z,0.60
2019-02-09T05:00:31.407Z,0.70
2019-02-09T05:03:05.202Z,0.70
2019-02-09T05:05:37.588Z,0.80
2019-02-09T05:08:09.715Z,0.82
2019-02-09T05:10:42.780Z,0.60
2019-02-09T05:13:14.917Z,0.55
2019-02-09T05:15:47.095Z,0.70
2019-02-09T05:18:19.269Z,0.70
2019-02-09T05:20:51.397Z,0.75
2019-02-09T05:23:23.540Z,0.65
2019-02-09T05:25:55.695Z,0.65
2019-02-09T05:28:27.853Z,1.02
2019-02-09T05:31:00.039Z,0.90
2019-02-09T05:33:32.185Z,2.22
2019-02-09T05:36:04.442Z,1.22
2019-02-09T05:38:36.607Z,1.17
2019-02-09T05:41:08.807Z,0.90
2019-02-09T05:43:40.946Z,1.60
2019-02-09T05:46:13.103Z,1.82
2019-02-09T05:48:45.469Z,1.30
2019-02-09T05:51:17.636Z,1.87
2019-02-09T05:53:49.770Z,2.17
2019-02-09T05:56:21.932Z,1.20
2019-02-09T05:58:54.095Z,0.90
2019-02-09T06:01:31.904Z,1.50
2019-02-09T06:04:00.151Z,1.17
2019-02-09T06:06:32.304Z,1.10
2019-02-09T06:09:05.915Z,1.10
2019-02-09T06:11:38.069Z,1.17
2019-02-09T06:14:10.218Z,1.20
2019-02-09T06:16:42.384Z,0.80
2019-02-09T06:19:14.538Z,1.37
2019-02-09T06:21:46.681Z,1.90
2019-02-09T06:24:18.840Z,1.25
2019-02-09T06:26:50.997Z,1.47
2019-02-09T06:29:23.145Z,1.40
2019-02-09T06:31:55.301Z,1.32
2019-02-09T06:34:27.444Z,1.37
2019-02-09T06:36:59.593Z,1.55
2019-02-09T06:39:31.786Z,0.98
2019-02-09T06:42:03.962Z,1.10
2019-02-09T06:44:36.166Z,1.32
2019-02-09T06:47:08.324Z,1.05
2019-02-09T06:49:40.465Z,2.17
2019-02-09T06:52:12.627Z,1.22
2019-02-09T06:54:44.765Z,1.20
2019-02-09T06:57:16.953Z,1.17
2019-02-09T06:59:49.130Z,1.65
2019-02-09T07:02:21.469Z,1.25
2019-02-09T07:04:53.599Z,1.10
2019-02-09T07:07:25.771Z,1.25
2019-02-09T07:09:57.905Z,1.62
2019-02-09T07:12:30.093Z,1.12
2019-02-09T07:15:02.253Z,1.70
2019-02-09T07:17:34.469Z,0.80
2019-02-09T07:20:08.096Z,1.20
2019-02-09T07:22:40.250Z,1.07
2019-02-09T07:25:13.458Z,1.30
2019-02-09T07:27:45.618Z,1.70
2019-02-09T07:30:19.384Z,1.45
2019-02-09T07:32:51.510Z,1.70
2019-02-09T07:35:23.696Z,0.98
2019-02-09T07:37:55.911Z,1.10
2019-02-09T07:40:28.064Z,1.02
2019-02-09T07:43:00.262Z,1.37
2019-02-09T07:45:33.278Z,0.90
2019-02-09T07:48:05.765Z,1.30
2019-02-09T07:50:37.899Z,1.67
2019-02-09T07:53:10.090Z,1.77
2019-02-09T07:55:42.277Z,1.07
2019-02-09T07:58:14.447Z,1.27
2019-02-09T08:00:46.606Z,1.52
2019-02-09T08:03:18.798Z,1.20
2019-02-09T08:05:50.980Z,2.00
2019-02-09T08:08:23.193Z,1.70
2019-02-09T08:10:55.328Z,2.72
2019-02-09T08:13:28.323Z,2.77
2019-02-09T08:16:00.449Z,2.05
2019-02-09T08:18:32.630Z,2.20
2019-02-09T08:21:04.769Z,2.00
2019-02-09T08:23:36.925Z,1.85
2019-02-09T08:26:09.083Z,2.05
2019-02-09T08:28:41.244Z,1.47
2019-02-09T08:31:13.378Z,1.55
2019-02-09T08:33:46.461Z,1.47
2019-02-09T08:36:18.612Z,1.47
2019-02-09T08:38:51.230Z,1.55
2019-02-09T08:41:23.349Z,1.37
2019-02-09T08:43:55.535Z,1.85
2019-02-09T08:46:27.673Z,1.37
2019-02-09T08:48:59.865Z,1.57
2019-02-09T08:51:32.044Z,1.90
2019-02-09T08:54:04.190Z,2.05
2019-02-09T08:56:36.350Z,1.75
2019-02-09T08:59:08.511Z,1.77
2019-02-09T09:01:40.664Z,2.27
2019-02-09T09:04:12.858Z,1.37
2019-02-09T09:06:45.000Z,2.12
2019-02-09T09:09:17.182Z,1.92
2019-02-09T09:11:49.329Z,1.95
2019-02-09T09:14:21.483Z,1.92
2019-02-09T09:16:53.626Z,2.05
2019-02-09T09:19:25.867Z,1.85
2019-02-09T09:21:58.017Z,0.28
2019-02-09T09:24:30.165Z,1.57
2019-02-09T09:27:02.338Z,2.02
2019-02-09T09:29:34.480Z,1.50
2019-02-09T09:32:06.651Z,1.55
2019-02-09T09:34:38.801Z,0.80
2019-02-09T09:37:10.942Z,1.62
2019-02-09T09:39:43.112Z,2.00
2019-02-09T09:42:15.242Z,0.88
2019-02-09T09:44:47.405Z,2.55
2019-02-09T09:47:19.572Z,1.10
2019-02-09T09:49:51.834Z,2.45
2019-02-09T09:52:23.988Z,1.75
2019-02-09T09:54:56.142Z,2.05
2019-02-09T09:57:28.300Z,2.27
2019-02-09T10:00:00.461Z,1.62
2019-02-09T10:02:36.669Z,2.37
2019-02-09T10:05:07.565Z,1.40
2019-02-09T10:07:39.731Z,1.82
2019-02-09T10:10:13.221Z,2.10
2019-02-09T10:12:45.347Z,2.77
2019-02-09T10:15:19.164Z,2.15
2019-02-09T10:17:51.345Z,1.50
2019-02-09T10:20:24.089Z,2.80
2019-02-09T10:22:56.238Z,1.92
2019-02-09T10:25:28.396Z,1.60
2019-02-09T10:28:00.565Z,1.30
2019-02-09T10:30:35.674Z,2.08
2019-02-09T10:33:07.853Z,1.77
2019-02-09T10:35:40.020Z,2.02
2019-02-09T10:38:12.174Z,1.82
2019-02-09T10:40:44.343Z,2.02
2019-02-09T10:43:16.505Z,1.80
2019-02-09T10:45:48.669Z,2.00
2019-02-09T10:48:20.808Z,2.02
2019-02-09T10:50:52.976Z,1.92
2019-02-09T10:53:25.173Z,2.95
2019-02-09T10:55:57.393Z,1.95
2019-02-09T10:58:30.460Z,1.52
2019-02-09T11:01:04.325Z,1.90
2019-02-09T11:03:36.514Z,2.00
2019-02-09T11:06:08.750Z,2.25
2019-02-09T11:08:40.893Z,1.75
2019-02-09T11:11:13.049Z,1.00
2019-02-09T11:13:45.237Z,1.45
2019-02-09T11:16:17.390Z,1.42
2019-02-09T11:18:49.537Z,2.15
2019-02-09T11:21:21.753Z,2.52
2019-02-09T11:23:53.952Z,2.10
2019-02-09T11:26:26.120Z,1.15
2019-02-09T11:28:58.287Z,2.60
2019-02-09T11:31:30.466Z,2.02
2019-02-09T11:34:02.678Z,2.22
2019-02-09T11:36:34.824Z,2.72
2019-02-09T11:39:06.995Z,1.75
2019-02-09T11:41:40.047Z,1.90
2019-02-09T11:44:12.216Z,2.10
2019-02-09T11:46:44.341Z,1.72
2019-02-09T11:49:16.889Z,1.62
2019-02-09T11:51:49.138Z,1.62
2019-02-09T11:54:21.286Z,1.37
2019-02-09T11:56:53.684Z,2.55
2019-02-09T11:59:25.866Z,2.25
2019-02-09T12:01:58.076Z,1.00
2019-02-09T12:04:30.220Z,1.20
2019-02-09T12:07:02.441Z,2.02
2019-02-09T12:09:34.564Z,2.70
2019-02-09T12:12:06.743Z,2.55
2019-02-09T12:14:38.951Z,2.42
2019-02-09T12:17:11.111Z,2.50
2019-02-09T12:19:43.262Z,2.60
2019-02-09T12:22:15.444Z,1.70
2019-02-09T12:24:47.581Z,1.90
2019-02-09T12:27:19.729Z,1.65
2019-02-09T12:29:51.888Z,2.30
2019-02-09T12:32:24.109Z,1.42
2019-02-09T12:34:56.245Z,1.60
2019-02-09T12:37:28.440Z,2.17
2019-02-09T12:40:00.686Z,2.00
2019-02-09T12:42:32.889Z,1.62
2019-02-09T12:45:09.356Z,1.42
2019-02-09T12:47:41.608Z,2.27
2019-02-09T12:50:14.709Z,2.65
2019-02-09T12:52:46.879Z,1.95
2019-02-09T12:55:19.038Z,2.23
2019-02-09T12:57:51.202Z,1.20
2019-02-09T13:00:30.588Z,2.47
2019-02-09T13:03:13.453Z,2.50
2019-02-09T13:05:45.596Z,2.17
2019-02-09T13:08:17.768Z,1.85
2019-02-09T13:10:49.921Z,2.15
2019-02-09T13:13:22.119Z,2.47
2019-02-09T13:15:54.262Z,2.08
2019-02-09T13:18:27.374Z,2.65
2019-02-09T13:20:59.522Z,2.30
2019-02-09T13:23:31.676Z,1.70
2019-02-09T13:26:03.841Z,1.65
2019-02-09T13:28:36.032Z,1.65
2019-02-09T13:31:08.231Z,1.57
2019-02-09T13:33:40.510Z,1.75
2019-02-09T13:36:12.649Z,1.92
2019-02-09T13:38:44.823Z,0.98
2019-02-09T13:41:16.955Z,1.52
2019-02-09T13:43:50.066Z,2.42
2019-02-09T13:46:22.235Z,1.62
2019-02-09T13:48:55.412Z,1.57
2019-02-09T13:51:27.536Z,1.95
2019-02-09T13:53:59.702Z,2.00
2019-02-09T13:56:31.857Z,2.10
2019-02-09T13:59:04.036Z,1.80
2019-02-09T14:01:36.241Z,1.82
2019-02-09T14:04:08.404Z,1.22
2019-02-09T14:06:40.549Z,0.98
2019-02-09T14:09:12.739Z,1.22
2019-02-09T14:11:44.899Z,1.70
2019-02-09T14:14:17.056Z,1.62
2019-02-09T14:16:49.224Z,1.82
2019-02-09T14:19:21.433Z,1.67
2019-02-09T14:21:53.574Z,2.22
2019-02-09T14:24:25.819Z,2.22
2019-02-09T14:26:57.964Z,2.02
2019-02-09T14:29:30.147Z,2.20
2019-02-09T14:32:03.191Z,2.25
2019-02-09T14:34:35.350Z,1.57
2019-02-09T14:37:07.520Z,1.20
2019-02-09T14:39:39.671Z,1.25
2019-02-09T14:42:11.827Z,0.82
2019-02-09T14:44:44.000Z,1.37
2019-02-09T14:47:16.183Z,1.50
2019-02-09T14:49:48.393Z,1.45
2019-02-09T14:52:20.524Z,1.95
2019-02-09T14:54:52.698Z,1.60
2019-02-09T14:57:24.852Z,2.02
2019-02-09T14:59:57.002Z,1.92
2019-02-09T15:02:29.145Z,1.30
2019-02-09T15:05:01.299Z,1.65
2019-02-09T15:07:33.502Z,1.72
2019-02-09T15:10:07.308Z,1.87
2019-02-09T15:12:39.483Z,1.57
2019-02-09T15:15:13.273Z,1.40
2019-02-09T15:17:45.426Z,1.52
2019-02-09T15:20:19.061Z,1.55
2019-02-09T15:22:51.234Z,1.42
2019-02-09T15:25:23.443Z,1.57
2019-02-09T15:27:55.580Z,2.02
2019-02-09T15:30:28.515Z,1.55
2019-02-09T15:33:00.686Z,1.87
2019-02-09T15:35:32.911Z,2.02
2019-02-09T15:38:05.059Z,1.75
2019-02-09T15:40:37.222Z,1.57
2019-02-09T15:43:09.395Z,2.13
2019-02-09T15:45:41.628Z,1.65
2019-02-09T15:48:13.772Z,2.12
2019-02-09T15:50:45.962Z,2.10
2019-02-09T15:53:18.107Z,2.08
2019-02-09T15:55:50.272Z,2.05
2019-02-09T15:58:22.497Z,2.10
2019-02-09T16:00:54.656Z,1.70
2019-02-09T16:03:26.839Z,2.70
2019-02-09T16:05:59.013Z,2.15
2019-02-09T16:08:31.173Z,2.02
2019-02-09T16:11:03.393Z,2.05
2019-02-09T16:13:35.873Z,1.75
2019-02-09T16:16:08.043Z,1.82
2019-02-09T16:18:40.243Z,1.80
2019-02-09T16:21:12.431Z,1.90
2019-02-09T16:23:44.676Z,1.80
2019-02-09T16:26:16.913Z,1.80
2019-02-09T16:28:49.149Z,2.50
2019-02-09T16:31:21.293Z,2.00
2019-02-09T16:33:53.485Z,1.70
2019-02-09T16:36:25.652Z,1.67
2019-02-09T16:38:57.792Z,2.00
2019-02-09T16:41:29.945Z,1.77
2019-02-09T16:44:02.094Z,1.20
2019-02-09T16:46:34.255Z,7.67
2019-02-09T16:49:06.404Z,4.87
2019-02-09T16:51:38.598Z,4.53
2019-02-09T16:54:10.779Z,2.95
2019-02-09T16:56:42.969Z,4.00
2019-02-09T16:59:15.122Z,2.58
2019-02-09T17:01:47.314Z,2.02
2019-02-09T17:04:19.449Z,2.65
2019-02-09T17:06:51.600Z,3.20
2019-02-09T17:09:23.752Z,2.27
2019-02-09T17:11:55.911Z,2.12
2019-02-09T17:14:28.069Z,1.40
2019-02-09T17:17:00.238Z,1.95
2019-02-09T17:19:32.418Z,1.80
2019-02-09T17:22:04.597Z,2.40
2019-02-09T17:24:36.774Z,1.60
2019-02-09T17:27:08.996Z,1.92
2019-02-09T17:29:41.191Z,2.15
2019-02-09T17:32:13.336Z,2.17
2019-02-09T17:34:45.486Z,1.75
2019-02-09T17:37:17.731Z,2.30
2019-02-09T17:39:49.961Z,1.60
2019-02-09T17:42:22.127Z,2.70
2019-02-09T17:44:54.287Z,2.02
2019-02-09T17:47:26.465Z,1.40
2019-02-09T17:49:58.611Z,1.65
2019-02-09T17:52:30.767Z,1.40
2019-02-09T17:55:03.551Z,1.40
2019-02-09T17:57:35.724Z,1.30
2019-02-09T18:00:17.716Z,2.00
2019-02-09T18:02:49.846Z,1.35
2019-02-09T18:05:21.965Z,1.57
2019-02-09T18:07:54.110Z,1.05
2019-02-09T18:10:26.512Z,1.10
2019-02-09T18:12:58.788Z,1.70
2019-02-09T18:15:30.937Z,1.00
2019-02-09T18:18:03.185Z,1.37
2019-02-09T18:20:35.344Z,1.55
2019-02-09T18:23:07.631Z,1.62
2019-02-09T18:25:39.817Z,1.92
2019-02-09T18:28:11.983Z,1.55
2019-02-09T18:30:44.163Z,1.32
2019-02-09T18:33:16.303Z,1.62
2019-02-09T18:35:48.489Z,1.75
2019-02-09T18:38:20.691Z,1.72
2019-02-09T18:40:52.828Z,1.40
2019-02-09T18:54:33.185Z,1.50
2019-02-09T18:57:05.319Z,1.52
2019-02-09T18:59:37.489Z,1.75
2019-02-09T19:02:09.782Z,1.52
2019-02-09T19:04:41.920Z,1.67
2019-02-09T19:07:14.689Z,1.65
2019-02-09T19:09:46.870Z,1.95
2019-02-09T19:12:19.058Z,1.85
2019-02-09T19:14:51.432Z,2.37
2019-02-09T19:17:24.540Z,2.30
2019-02-09T19:19:56.719Z,2.50
2019-02-09T19:28:57.450Z,2.00
2019-02-09T19:31:29.597Z,1.77
2019-02-09T19:34:01.877Z,1.57
2019-02-09T19:36:34.047Z,1.98
2019-02-09T19:39:06.887Z,2.12
2019-02-09T19:41:39.123Z,2.25
2019-02-09T19:44:11.375Z,2.50
2019-02-09T19:46:43.546Z,1.98
2019-02-09T19:49:15.693Z,2.30
2019-02-09T19:51:48.107Z,2.37
2019-02-09T19:54:20.274Z,3.15
2019-02-09T19:56:52.541Z,2.20
2019-02-09T19:59:24.669Z,2.42
2019-02-09T20:01:56.943Z,2.65
2019-02-09T20:04:29.365Z,2.58
2019-02-09T20:07:01.513Z,1.52
2019-02-09T20:09:33.928Z,2.35
2019-02-09T20:12:06.096Z,2.12
2019-02-09T20:14:38.292Z,3.05
2019-02-09T20:17:10.425Z,1.63
2019-02-09T20:19:42.605Z,2.95
2019-02-09T20:22:14.747Z,2.67
2019-02-09T20:24:46.936Z,2.20
2019-02-09T20:27:19.080Z,2.85
2019-02-09T20:29:51.248Z,2.47
2019-02-09T20:32:23.382Z,3.00
2019-02-09T20:34:55.534Z,2.70
2019-02-09T20:37:27.673Z,2.70
2019-02-09T20:39:59.831Z,2.62
2019-02-09T20:42:31.984Z,2.60
2019-02-09T20:45:05.762Z,2.72
2019-02-09T20:47:37.965Z,2.58
2019-02-09T20:50:15.826Z,3.20
2019-02-09T20:52:48.131Z,2.62
2019-02-09T20:55:20.797Z,2.90
2019-02-09T20:57:53.171Z,2.83
2019-02-09T21:00:29.090Z,2.67
2019-02-09T21:03:01.244Z,2.73
2019-02-09T21:05:36.416Z,3.15
2019-02-09T21:08:07.446Z,2.10
2019-02-09T21:10:41.374Z,3.70
2019-02-09T21:13:13.562Z,2.80
2019-02-09T21:15:45.727Z,2.40
2019-02-09T21:18:17.935Z,2.87
2019-02-09T21:20:50.145Z,3.10
2019-02-09T21:23:22.307Z,3.15
2019-02-09T21:25:55.420Z,3.00
2019-02-09T21:28:27.566Z,3.30
2019-02-09T21:30:59.737Z,3.00
2019-02-09T21:33:31.874Z,2.92
2019-02-09T21:36:04.020Z,2.50
2019-02-09T21:38:36.891Z,2.70
2019-02-09T21:41:09.054Z,2.58
2019-02-09T21:43:43.507Z,2.62
2019-02-09T21:46:15.669Z,3.25
2019-02-09T21:48:47.811Z,3.08
2019-02-09T21:51:20.023Z,3.05
2019-02-09T21:53:52.174Z,2.60
2019-02-09T21:56:24.330Z,3.22
2019-02-09T21:58:56.701Z,2.45
2019-02-09T22:01:28.868Z,3.00
2019-02-09T22:04:01.059Z,3.00
2019-02-09T22:06:33.387Z,2.42
2019-02-09T22:09:05.976Z,2.67
2019-02-09T22:11:38.181Z,2.80
2019-02-09T22:14:10.475Z,2.77
2019-02-09T22:16:42.668Z,3.02
2019-02-09T22:19:14.990Z,3.12
2019-02-09T22:21:47.428Z,3.40
2019-02-09T22:24:19.720Z,3.00
2019-02-09T22:26:51.931Z,2.83
2019-02-09T22:29:24.139Z,3.22
2019-02-09T22:31:56.593Z,3.72
2019-02-09T22:34:28.747Z,3.72
2019-02-09T22:37:00.936Z,3.37
2019-02-09T22:39:33.088Z,3.83
2019-02-09T22:42:05.269Z,2.70
2019-02-09T22:44:37.459Z,3.33
2019-02-09T22:47:09.645Z,3.15
2019-02-09T22:49:41.779Z,3.05
2019-02-09T22:52:14.040Z,3.25
2019-02-09T22:54:46.214Z,2.40
2019-02-09T22:57:18.485Z,2.67
2019-02-09T22:59:50.738Z,3.58
2019-02-09T23:02:22.948Z,3.08
2019-02-09T23:04:56.101Z,3.33
2019-02-09T23:07:28.251Z,2.72
2019-02-09T23:10:00.391Z,3.35
2019-02-09T23:12:32.538Z,2.70
2019-02-09T23:15:06.277Z,2.40
2019-02-09T23:17:38.478Z,2.35
2019-02-09T23:20:10.622Z,2.77
2019-02-09T23:22:42.784Z,3.20
2019-02-09T23:25:14.933Z,4.35
2019-02-09T23:27:47.103Z,3.45
2019-02-09T23:30:19.256Z,3.33
2019-02-09T23:32:51.414Z,3.50
2019-02-09T23:35:23.633Z,3.42
2019-02-09T23:37:55.785Z,3.15
2019-02-09T23:40:27.926Z,3.15
2019-02-09T23:43:00.090Z,3.10
2019-02-09T23:45:32.264Z,2.40
2019-02-09T23:48:04.451Z,3.50
2019-02-09T23:50:36.588Z,2.80
2019-02-09T23:53:09.693Z,2.60
2019-02-09T23:55:41.868Z,3.08
2019-02-09T23:58:14.039Z,2.55
